Time;durP1;ratioP1;P1;durP2;ratioP2;P2;SDS_P1;SDS_P2;PMS_P1;PMS_P2;Temp;Humidity;BMP_temperature;BMP_pressure;BME280_temperature;BME280_humidity;BME280_pressure;Samples;Min_cycle;Max_cycle;Signal;HPM_P1;HPM_P2
2021/12/29 00:02:56;;;;;;;43.38;24.50;;;;;;;1.02;100.00;99194.72;6370945;28;20554;-80
2021/12/29 00:05:57;;;;;;;43.63;23.55;;;;;;;1.04;100.00;99198.06;6354814;28;20043;-90
2021/12/29 00:08:59;;;;;;;44.00;23.25;;;;;;;1.05;100.00;99198.91;6372771;28;20040;-81
2021/12/29 00:12:00;;;;;;;40.65;23.33;;;;;;;1.04;100.00;99198.06;6374177;27;20075;-90
2021/12/29 00:15:01;;;;;;;42.75;23.67;;;;;;;0.98;100.00;99188.84;6377089;27;20043;-81
2021/12/29 00:18:03;;;;;;;41.63;21.85;;;;;;;1.03;100.00;99196.41;6376577;27;20168;-81
2021/12/29 00:21:06;;;;;;;41.50;23.90;;;;;;;1.09;100.00;99195.34;6375220;27;20043;-81
2021/12/29 00:24:07;;;;;;;39.42;20.77;;;;;;;0.93;100.00;99198.47;6375670;27;20039;-81
2021/12/29 00:27:10;;;;;;;41.58;21.88;;;;;;;0.99;100.00;99194.84;6357013;27;20078;-81
2021/12/29 00:30:12;;;;;;;39.42;21.52;;;;;;;0.95;100.00;99178.69;6373278;27;20035;-83
2021/12/29 00:33:13;;;;;;;41.22;21.70;;;;;;;1.10;100.00;99197.03;6375990;27;20102;-81
2021/12/29 00:36:14;;;;;;;40.85;20.80;;;;;;;0.97;100.00;99183.78;6359336;27;20149;-80
2021/12/29 00:39:15;;;;;;;45.35;21.60;;;;;;;0.87;100.00;99185.84;6359777;27;20050;-81
2021/12/29 00:42:16;;;;;;;40.38;21.20;;;;;;;0.99;100.00;99197.41;6376239;27;20061;-89
2021/12/29 00:45:17;;;;;;;40.58;22.02;;;;;;;0.93;100.00;99189.94;6381583;27;20046;-80
2021/12/29 00:48:19;;;;;;;35.80;20.55;;;;;;;0.96;100.00;99193.19;6358742;27;20043;-79
2021/12/29 00:51:20;;;;;;;40.80;22.20;;;;;;;1.06;100.00;99190.31;6377915;27;20117;-90
2021/12/29 00:54:21;;;;;;;42.50;21.83;;;;;;;1.10;100.00;99197.03;6360301;27;20497;-90
2021/12/29 00:57:23;;;;;;;45.05;22.75;;;;;;;1.12;100.00;99190.94;6361803;27;20047;-90
2021/12/29 01:00:25;;;;;;;39.47;19.77;;;;;;;1.16;100.00;99187.34;6360115;27;20073;-90
2021/12/29 01:03:29;;;;;;;40.77;20.67;;;;;;;1.19;100.00;99183.84;6375871;27;20066;-82
2021/12/29 01:06:31;;;;;;;38.83;20.52;;;;;;;1.19;100.00;99183.84;6375745;27;20310;-81
2021/12/29 01:09:31;;;;;;;41.08;20.90;;;;;;;1.20;100.00;99172.66;6374215;27;20044;-81
2021/12/29 01:12:32;;;;;;;37.65;19.92;;;;;;;1.22;100.00;99170.06;6374077;27;20085;-89
2021/12/29 01:15:55;;;;;;;39.47;20.88;;;;;;;1.24;100.00;99169.09;6358670;27;20046;-89
2021/12/29 01:18:56;;;;;;;40.58;21.55;;;;;;;1.19;100.00;99165.84;6375329;27;20104;-88
2021/12/29 01:21:59;;;;;;;40.30;20.77;;;;;;;1.20;100.00;99160.66;6357177;27;20502;-81
2021/12/29 01:24:59;;;;;;;;;;;;;;;1.20;100.00;99165.78;6374025;27;20479;-81
2021/12/29 01:28:00;;;;;;;32.72;17.88;;;;;;;1.12;100.00;99152.38;6374950;27;19926;-81
2021/12/29 01:31:01;;;;;;;33.42;19.08;;;;;;;1.26;100.00;99153.63;6373830;27;20056;-88
2021/12/29 01:34:05;;;;;;;33.65;18.02;;;;;;;1.22;100.00;99141.78;6374460;27;20042;-89
2021/12/29 01:37:06;;;;;;;33.58;19.00;;;;;;;1.27;100.00;99139.88;6357501;27;20047;-83
2021/12/29 01:40:13;;;;;;;36.15;19.17;;;;;;;1.30;100.00;99143.16;6373790;27;20491;-88
2021/12/29 01:43:18;;;;;;;36.95;19.23;;;;;;;1.19;100.00;99143.56;6374708;27;20039;-89
2021/12/29 01:46:22;;;;;;;32.50;17.85;;;;;;;1.29;100.00;99145.78;6374534;27;20047;-89
2021/12/29 01:49:24;;;;;;;30.33;17.23;;;;;;;1.28;100.00;99134.69;6357016;27;20039;-89
2021/12/29 01:52:28;;;;;;;34.65;18.52;;;;;;;1.26;100.00;99131.31;6373627;27;20486;-81
2021/12/29 01:55:31;;;;;;;36.17;19.20;;;;;;;1.30;100.00;99124.34;6373175;27;20035;-82
2021/12/29 01:58:31;;;;;;;36.38;18.85;;;;;;;1.26;100.00;99126.19;6372852;27;20557;-82
2021/12/29 02:01:33;;;;;;;37.03;19.42;;;;;;;1.33;100.00;99121.66;6338710;27;20091;-82
2021/12/29 02:04:34;;;;;;;34.50;18.42;;;;;;;1.43;100.00;99117.00;6373140;27;20402;-81
2021/12/29 02:07:35;;;;;;;32.70;18.27;;;;;;;1.39;100.00;99119.66;6372670;27;20127;-82
2021/12/29 02:10:43;;;;;;;34.97;16.95;;;;;;;1.29;100.00;99107.25;6355279;27;20051;-80
2021/12/29 02:13:47;;;;;;;34.92;18.35;;;;;;;1.46;100.00;99117.69;6375669;27;20050;-88
2021/12/29 02:16:48;;;;;;;36.30;18.63;;;;;;;1.41;100.00;99124.75;6372476;27;20384;-81
2021/12/29 02:19:49;;;;;;;31.70;18.00;;;;;;;1.43;100.00;99114.44;6373064;27;20039;-82
2021/12/29 02:23:00;;;;;;;30.13;17.10;;;;;;;1.34;100.00;99107.88;6355384;27;20043;-88
2021/12/29 02:26:02;;;;;;;33.80;18.17;;;;;;;1.41;100.00;99102.47;6374025;27;20046;-88
2021/12/29 02:29:06;;;;;;;34.88;18.83;;;;;;;1.39;100.00;99090.56;6374222;27;20043;-88
2021/12/29 02:32:07;;;;;;;28.95;16.30;;;;;;;1.39;100.00;99098.28;6376925;27;20434;-82
2021/12/29 02:35:09;;;;;;;29.30;16.00;;;;;;;1.48;100.00;99099.66;6355075;27;20063;-82
2021/12/29 02:38:32;;;;;;;32.33;18.15;;;;;;;1.43;100.00;99086.16;6355100;27;20047;-80
2021/12/29 02:41:33;;;;;;;30.27;17.05;;;;;;;1.50;100.00;99082.44;6372418;27;20039;-86
2021/12/29 02:44:40;;;;;;;29.80;15.75;;;;;;;1.50;100.00;99075.53;6373813;27;20039;-80
2021/12/29 02:47:42;;;;;;;33.65;17.23;;;;;;;1.48;100.00;99079.09;6357011;27;20043;-86
2021/12/29 02:50:44;;;;;;;36.60;17.75;;;;;;;1.53;100.00;99078.00;6374652;27;20035;-86
2021/12/29 02:53:45;;;;;;;34.35;18.13;;;;;;;1.58;100.00;99083.78;6355126;27;20045;-80
2021/12/29 02:56:48;;;;;;;31.00;16.45;;;;;;;1.57;100.00;99079.56;6372396;27;20035;-86
2021/12/29 02:59:49;;;;;;;28.95;16.70;;;;;;;1.61;100.00;99081.13;6374488;27;20035;-86
2021/12/29 03:02:49;;;;;;;29.38;16.88;;;;;;;1.49;100.00;99073.88;6371976;27;20050;-80
2021/12/29 03:05:52;;;;;;;34.00;17.13;;;;;;;1.64;100.00;99080.16;6371838;27;20047;-86
2021/12/29 03:08:53;;;;;;;31.25;17.08;;;;;;;1.64;100.00;99064.72;6373063;27;20042;-85
2021/12/29 03:11:54;;;;;;;30.83;17.20;;;;;;;1.67;100.00;99067.19;6372745;27;20483;-85
2021/12/29 03:14:58;;;;;;;29.25;16.13;;;;;;;1.73;100.00;99073.78;6354992;27;20046;-80
2021/12/29 03:18:00;;;;;;;30.10;15.85;;;;;;;1.79;100.00;99063.25;6371103;27;20074;-80
2021/12/29 03:21:01;;;;;;;28.63;16.92;;;;;;;1.80;100.00;99065.78;6371256;27;20479;-80
2021/12/29 03:24:04;;;;;;;28.08;16.05;;;;;;;1.83;100.00;99058.81;6355672;28;20407;-79
2021/12/29 03:27:05;;;;;;;26.77;14.80;;;;;;;1.81;100.00;99059.75;6373248;28;20414;-86
2021/12/29 03:30:06;;;;;;;28.95;15.93;;;;;;;1.80;100.00;99060.63;6372964;28;20039;-86
2021/12/29 03:33:09;;;;;;;28.48;14.88;;;;;;;1.74;100.00;99050.59;6372679;28;20042;-86
2021/12/29 03:36:11;;;;;;;30.30;15.13;;;;;;;1.79;100.00;99052.97;6372703;28;20122;-86
2021/12/29 03:39:13;;;;;;;27.38;15.18;;;;;;;1.83;100.00;99043.41;6373740;27;20399;-80
2021/12/29 03:42:14;;;;;;;28.20;15.63;;;;;;;1.77;100.00;99045.34;6372114;27;20100;-80
2021/12/29 03:45:15;;;;;;;29.17;16.10;;;;;;;1.73;100.00;99038.66;6371854;27;20383;-86
2021/12/29 03:48:16;;;;;;;25.45;14.65;;;;;;;1.69;100.00;99036.25;6377820;27;20039;-85
2021/12/29 03:51:17;;;;;;;27.35;15.35;;;;;;;1.68;100.00;99034.56;6377848;27;20067;-86
2021/12/29 03:54:18;;;;;;;31.52;15.60;;;;;;;1.65;100.00;99020.13;6360755;27;20116;-86
2021/12/29 03:57:19;;;;;;;26.27;14.85;;;;;;;1.76;100.00;99033.34;6360975;27;20043;-86
2021/12/29 04:00:23;;;;;;;28.17;15.80;;;;;;;1.81;100.00;99034.03;6378627;27;20537;-86
2021/12/29 04:03:24;;;;;;;28.23;15.65;;;;;;;1.78;100.00;99030.72;6380222;27;20043;-86
2021/12/29 04:06:25;;;;;;;27.07;15.43;;;;;;;1.79;100.00;99040.09;6379353;27;20046;-86
2021/12/29 04:09:26;;;;;;;28.52;15.93;;;;;;;1.78;100.00;99036.69;6343343;27;20047;-86
2021/12/29 04:12:27;;;;;;;25.27;13.90;;;;;;;1.85;100.00;99047.56;6359918;27;20137;-86
2021/12/29 04:15:29;;;;;;;27.35;15.60;;;;;;;1.85;100.00;99037.28;6378378;27;20043;-87
2021/12/29 04:18:30;;;;;;;31.52;15.55;;;;;;;1.82;100.00;99034.84;6377150;27;20062;-87
2021/12/29 04:21:33;;;;;;;29.25;15.13;;;;;;;1.75;100.00;99038.56;6360129;27;20474;-87
2021/12/29 04:24:36;;;;;;;25.85;14.30;;;;;;;1.85;100.00;99033.88;6376937;27;20540;-87
2021/12/29 04:27:37;;;;;;;27.38;15.02;;;;;;;1.82;100.00;99032.28;6376750;27;20046;-81
2021/12/29 04:30:38;;;;;;;30.52;15.68;;;;;;;1.84;100.00;99035.63;6341276;27;20526;-82
2021/12/29 04:33:39;;;;;;;26.77;14.75;;;;;;;1.90;100.00;99045.66;6376158;27;20047;-87
2021/12/29 04:36:40;;;;;;;28.17;15.43;;;;;;;1.92;100.00;99046.44;6359567;27;20043;-82
2021/12/29 04:39:41;;;;;;;27.92;14.68;;;;;;;1.83;100.00;99051.94;6357942;27;20035;-81
2021/12/29 04:42:42;;;;;;;25.00;13.27;;;;;;;1.86;100.00;99054.41;6358024;27;20051;-82
2021/12/29 04:45:43;;;;;;;24.50;13.38;;;;;;;1.86;100.00;99059.53;6375961;27;20225;-82
2021/12/29 04:48:58;;;;;;;23.80;13.10;;;;;;;1.78;100.00;99061.59;6340861;27;20043;-82
2021/12/29 04:52:04;;;;;;;25.02;14.05;;;;;;;1.81;100.00;99066.59;6374606;27;20392;-82
2021/12/29 04:55:07;;;;;;;31.27;16.20;;;;;;;1.89;100.00;99061.97;6342349;27;20067;-82
2021/12/29 04:58:08;;;;;;;27.33;14.77;;;;;;;1.86;100.00;99053.56;6356387;27;20464;-82
2021/12/29 05:01:09;;;;;;;32.75;15.27;;;;;;;1.76;100.00;99046.22;6374515;27;20096;-82
2021/12/29 05:04:12;;;;;;;28.33;15.68;;;;;;;1.80;100.00;99049.50;6358367;27;20410;-87
2021/12/29 05:10:34;;;;;;;28.88;14.45;;;;;;;1.89;100.00;99059.41;6375747;27;20055;-81
2021/12/29 05:13:37;;;;;;;27.90;16.57;;;;;;;1.98;100.00;99059.03;6375732;27;20482;-87
2021/12/29 05:16:38;;;;;;;39.60;18.15;;;;;;;1.64;100.00;99061.31;6375758;27;20078;-87
2021/12/29 05:19:39;;;;;;;45.55;22.23;;;;;;;1.67;100.00;99059.47;6376747;27;20050;-87
2021/12/29 05:22:40;;;;;;;39.08;20.25;;;;;;;1.69;100.00;99056.81;6375395;27;20483;-87
2021/12/29 05:25:41;;;;;;;34.63;18.77;;;;;;;1.77;100.00;99057.34;6357613;27;20047;-81
2021/12/29 05:28:42;;;;;;;30.38;16.77;;;;;;;1.84;100.00;99056.19;6339934;27;20051;-82
2021/12/29 05:31:43;;;;;;;32.17;16.55;;;;;;;1.85;100.00;99063.00;6356468;27;20126;-82
2021/12/29 05:34:43;;;;;;;28.98;15.00;;;;;;;1.86;100.00;99061.28;6373786;27;20042;-81
2021/12/29 05:37:45;;;;;;;29.08;15.20;;;;;;;1.90;100.00;99068.81;6356587;27;20035;-82
2021/12/29 05:40:46;;;;;;;27.88;14.35;;;;;;;1.87;100.00;99058.63;6373488;27;20403;-81
2021/12/29 05:43:46;;;;;;;23.20;13.70;;;;;;;1.84;100.00;99057.94;6373398;27;20050;-81
2021/12/29 05:46:47;;;;;;;51.97;28.58;;;;;;;1.96;100.00;99076.28;6373515;27;20047;-81
2021/12/29 05:49:48;;;;;;;36.90;19.02;;;;;;;1.98;100.00;99071.91;6374563;27;20053;-82
2021/12/29 05:52:49;;;;;;;69.85;36.40;;;;;;;2.00;100.00;99087.28;6374102;27;20035;-81
2021/12/29 05:55:50;;;;;;;36.63;20.80;;;;;;;2.07;100.00;99085.28;6357292;27;20058;-87
2021/12/29 05:58:51;;;;;;;25.52;15.98;;;;;;;2.13;100.00;99093.59;6374820;27;20035;-82
2021/12/29 06:01:51;;;;;;;27.80;16.33;;;;;;;2.37;100.00;99091.72;6375534;27;20085;-87
2021/12/29 06:04:52;;;;;;;32.78;18.52;;;;;;;2.56;100.00;99085.78;6357330;27;20124;-81
2021/12/29 06:07:53;;;;;;;28.98;16.05;;;;;;;2.49;100.00;99085.22;6373137;27;20034;-81
2021/12/29 06:10:54;;;;;;;30.02;16.48;;;;;;;2.53;100.00;99091.91;6373200;27;20058;-87
2021/12/29 06:13:55;;;;;;;31.58;15.85;;;;;;;2.44;100.00;99088.88;6375043;27;20054;-88
2021/12/29 06:16:56;;;;;;;41.95;23.65;;;;;;;2.45;100.00;99099.13;6375179;27;20114;-87
2021/12/29 06:19:56;;;;;;;31.80;18.45;;;;;;;2.39;100.00;99100.22;6375016;27;20039;-82
2021/12/29 06:22:57;;;;;;;30.35;14.82;;;;;;;2.40;100.00;99104.44;6373720;27;20110;-82
2021/12/29 06:25:58;;;;;;;28.30;14.75;;;;;;;2.44;100.00;99112.06;6355288;27;20047;-82
2021/12/29 06:28:59;;;;;;;45.03;23.35;;;;;;;2.50;100.00;99111.78;6338313;27;20118;-82
2021/12/29 06:32:00;;;;;;;33.33;18.00;;;;;;;2.53;100.00;99109.06;6373410;27;20049;-82
2021/12/29 06:35:02;;;;;;;31.88;17.50;;;;;;;2.51;100.00;99118.59;6372200;27;20035;-82
2021/12/29 06:38:03;;;;;;;42.78;22.83;;;;;;;2.38;100.00;99123.44;6373336;27;20035;-82
2021/12/29 06:41:04;;;;;;;111.80;54.75;;;;;;;2.16;100.00;99115.78;6355062;27;20121;-82
2021/12/29 06:44:05;;;;;;;135.43;64.50;;;;;;;2.37;100.00;99107.16;6354882;27;20657;-82
2021/12/29 06:47:06;;;;;;;38.22;21.05;;;;;;;2.36;100.00;99118.34;6371831;27;20035;-82
2021/12/29 06:50:08;;;;;;;36.20;20.37;;;;;;;2.40;100.00;99125.03;6337957;27;20040;-82
2021/12/29 06:53:12;;;;;;;37.38;20.10;;;;;;;2.41;100.00;99131.06;6372663;27;20291;-88
2021/12/29 06:56:13;;;;;;;41.70;20.23;;;;;;;2.14;100.00;99122.72;6356475;27;20088;-88
2021/12/29 06:59:14;;;;;;;34.92;18.58;;;;;;;2.11;100.00;99133.16;6374494;27;20119;-88
2021/12/29 07:02:15;;;;;;;39.25;20.20;;;;;;;2.24;100.00;99139.47;6372396;27;20440;-82
2021/12/29 07:05:16;;;;;;;55.70;22.17;;;;;;;2.20;100.00;99135.34;6372617;27;20039;-81
2021/12/29 07:08:17;;;;;;;63.42;27.98;;;;;;;2.28;100.00;99133.28;6371625;27;20116;-81
2021/12/29 07:11:18;;;;;;;51.83;24.00;;;;;;;2.28;100.00;99145.31;6354336;27;20134;-87
2021/12/29 07:14:20;;;;;;;68.10;23.35;;;;;;;2.21;100.00;99152.47;6373314;27;20490;-87
2021/12/29 07:17:21;;;;;;;65.88;26.88;;;;;;;2.33;100.00;99151.13;6374549;27;20133;-88
2021/12/29 07:20:22;;;;;;;80.47;29.75;;;;;;;2.17;100.00;99144.03;6356796;27;20031;-87
2021/12/29 07:23:23;;;;;;;105.70;20.08;;;;;;;2.16;100.00;99150.09;6356372;27;20054;-88
2021/12/29 07:26:25;;;;;;;81.38;21.10;;;;;;;2.13;100.00;99167.38;6373247;27;20043;-87
2021/12/29 07:29:26;;;;;;;98.13;20.33;;;;;;;2.09;100.00;99158.94;6374326;27;20479;-87
2021/12/29 07:32:27;;;;;;;88.22;19.65;;;;;;;2.00;100.00;99167.88;6372877;27;20047;-81
2021/12/29 07:35:28;;;;;;;74.22;18.52;;;;;;;2.04;100.00;99178.03;6355274;28;20047;-81
2021/12/29 07:38:29;;;;;;;94.20;20.13;;;;;;;2.11;100.00;99171.75;6370539;28;20080;-87
2021/12/29 07:41:30;;;;;;;140.10;22.60;;;;;;;2.11;100.00;99182.06;6355400;28;20513;-81
2021/12/29 07:44:31;;;;;;;97.68;21.13;;;;;;;1.98;100.00;99163.69;6370124;28;20462;-82
2021/12/29 07:47:33;;;;;;;98.15;20.33;;;;;;;2.21;100.00;99173.88;6370253;28;20039;-81
2021/12/29 07:50:34;;;;;;;125.22;24.75;;;;;;;2.17;100.00;99174.91;6371288;28;20043;-81
2021/12/29 07:53:37;;;;;;;134.00;21.77;;;;;;;2.16;100.00;99170.69;6371335;28;20041;-88
2021/12/29 07:56:38;;;;;;;121.45;22.20;;;;;;;2.09;100.00;99174.38;6355815;28;20528;-88
2021/12/29 07:59:39;;;;;;;98.78;19.85;;;;;;;2.05;100.00;99183.13;6355369;28;20039;-88
2021/12/29 08:02:43;;;;;;;98.32;22.55;;;;;;;2.11;100.00;99179.47;6371889;28;20043;-81
2021/12/29 08:05:45;;;;;;;101.55;20.17;;;;;;;2.14;100.00;99185.34;6354972;28;20061;-87
2021/12/29 08:08:46;;;;;;;115.45;21.85;;;;;;;2.08;100.00;99174.44;6372422;28;20131;-88
2021/12/29 08:11:46;;;;;;;92.38;22.20;;;;;;;2.10;100.00;99173.50;6372204;28;20054;-88
2021/12/29 08:14:49;;;;;;;87.50;22.58;;;;;;;2.07;100.00;99170.22;6355375;28;20451;-88
2021/12/29 08:17:49;;;;;;;140.18;28.95;;;;;;;2.14;100.00;99187.06;6355525;28;20042;-88
2021/12/29 08:20:50;;;;;;;89.43;23.52;;;;;;;2.05;100.00;99180.56;6373337;27;20456;-88
2021/12/29 08:23:51;;;;;;;102.10;23.23;;;;;;;2.05;100.00;99187.44;6371785;28;20410;-86
2021/12/29 08:26:52;;;;;;;68.95;21.27;;;;;;;2.07;100.00;99196.78;6371451;28;20035;-87
2021/12/29 08:29:53;;;;;;;103.70;22.50;;;;;;;2.03;100.00;99194.38;6371268;28;20096;-87
2021/12/29 08:32:54;;;;;;;98.38;22.58;;;;;;;1.96;100.00;99192.06;6339539;27;20383;-88
2021/12/29 08:35:55;;;;;;;69.85;21.67;;;;;;;2.05;100.00;99211.44;6358709;27;20046;-86
2021/12/29 08:38:56;;;;;;;104.18;21.08;;;;;;;1.90;100.00;99220.59;6358690;27;20092;-87
2021/12/29 08:41:57;;;;;;;77.90;20.80;;;;;;;1.86;100.00;99220.78;6377241;27;20043;-87
2021/12/29 08:44:58;;;;;;;53.15;19.42;;;;;;;1.89;100.00;99226.63;6376286;27;20051;-87
2021/12/29 08:47:59;;;;;;;99.35;22.58;;;;;;;1.91;100.00;99227.41;6358915;27;20452;-87
2021/12/29 08:51:00;;;;;;;73.70;21.77;;;;;;;1.78;100.00;99221.91;6377118;27;20063;-88
2021/12/29 08:54:01;;;;;;;88.65;20.90;;;;;;;1.88;100.00;99224.13;6341155;27;20130;-81
2021/12/29 08:57:03;;;;;;;77.55;21.25;;;;;;;1.99;100.00;99229.69;6375238;27;20100;-81
2021/12/29 09:00:07;;;;;;;100.38;21.45;;;;;;;1.93;100.00;99235.06;6375091;27;20039;-81
2021/12/29 09:03:09;;;;;;;81.30;21.85;;;;;;;2.01;100.00;99231.28;6376354;27;20050;-82
2021/12/29 09:06:11;;;;;;;90.72;21.08;;;;;;;2.01;100.00;99231.28;6375338;27;20471;-81
2021/12/29 09:09:12;;;;;;;80.45;21.48;;;;;;;1.95;100.00;99213.53;6376080;27;20070;-81
2021/12/29 09:12:13;;;;;;;104.18;22.55;;;;;;;2.06;100.00;99233.72;6340696;27;20384;-81
2021/12/29 09:15:14;;;;;;;93.90;21.42;;;;;;;2.03;100.00;99226.09;6374991;27;20401;-81
2021/12/29 09:18:17;;;;;;;86.20;23.33;;;;;;;2.08;100.00;99239.63;6374883;27;20540;-81
2021/12/29 09:21:18;;;;;;;84.28;17.88;;;;;;;2.00;100.00;99233.94;6374837;27;20043;-81
2021/12/29 09:24:20;;;;;;;83.85;21.15;;;;;;;2.12;100.00;99227.47;6374566;27;20135;-81
2021/12/29 09:27:21;;;;;;;78.47;20.63;;;;;;;1.94;100.00;99229.88;6374434;27;20046;-81
2021/12/29 09:30:24;;;;;;;89.65;22.63;;;;;;;1.90;100.00;99238.59;6374192;27;20039;-81
2021/12/29 09:33:25;;;;;;;107.45;21.42;;;;;;;1.87;100.00;99231.00;6356492;27;20456;-81
2021/12/29 09:36:26;;;;;;;103.90;22.77;;;;;;;1.87;100.00;99238.72;6339796;27;20039;-81
2021/12/29 09:39:27;;;;;;;106.18;21.80;;;;;;;1.85;100.00;99247.38;6356025;27;20509;-81
2021/12/29 09:42:28;;;;;;;130.10;22.73;;;;;;;1.90;100.00;99238.59;6356227;27;20418;-81
2021/12/29 09:45:31;;;;;;;139.30;21.80;;;;;;;1.97;100.00;99258.03;6355477;27;20051;-81
2021/12/29 09:48:32;;;;;;;;;;;;;;;1.87;100.00;99256.72;6374692;27;20410;-81
2021/12/29 09:51:33;;;;;;;103.68;19.27;;;;;;;1.98;100.00;99261.47;6374374;27;19972;-87
2021/12/29 09:54:34;;;;;;;121.90;21.02;;;;;;;1.95;100.00;99249.53;6370133;27;20053;-86
2021/12/29 09:57:44;;;;;;;107.22;22.67;;;;;;;2.01;100.00;99253.63;6372876;27;20465;-86
2021/12/29 10:00:59;;;;;;;64.57;22.30;;;;;;;2.12;100.00;99248.91;6368850;27;20057;-87
2021/12/29 10:04:00;;;;;;;135.75;22.02;;;;;;;2.20;100.00;99254.59;6375171;27;20498;-86
2021/12/29 10:07:16;;;;;;;127.68;20.42;;;;;;;1.93;100.00;99250.50;6356933;27;20039;-86
2021/12/29 10:10:20;;;;;;;156.13;23.20;;;;;;;1.85;100.00;99249.97;6357266;27;20043;-86
2021/12/29 10:13:21;;;;;;;113.53;21.70;;;;;;;1.93;100.00;99250.50;6373187;27;20042;-86
2021/12/29 10:16:27;;;;;;;106.20;20.33;;;;;;;1.97;100.00;99252.06;6368335;27;20035;-86
2021/12/29 10:19:35;;;;;;;91.82;21.15;;;;;;;2.01;100.00;99259.59;6348683;28;20040;-87
2021/12/29 10:22:37;;;;;;;101.97;19.20;;;;;;;1.92;100.00;99256.56;6383128;27;20495;-87
2021/12/29 10:25:38;;;;;;;126.65;20.13;;;;;;;1.98;100.00;99258.91;6355637;27;20126;-86
2021/12/29 10:28:49;;;;;;;109.40;21.38;;;;;;;2.07;100.00;99258.53;6355612;27;20050;-86
2021/12/29 10:32:02;;;;;;;111.70;22.08;;;;;;;1.91;100.00;99260.84;6372730;27;20068;-86
2021/12/29 10:35:03;;;;;;;;;;;;;;;1.94;100.00;99259.91;6372940;27;20445;-86
2021/12/29 10:38:12;;;;;;;89.35;18.73;;;;;;;1.98;100.00;99253.75;6373902;27;19923;-86
2021/12/29 10:41:13;;;;;;;134.23;21.73;;;;;;;2.00;100.00;99254.53;6372670;27;20437;-86
2021/12/29 10:44:14;;;;;;;144.60;29.27;;;;;;;2.22;100.00;99257.09;6338420;27;20121;-86
2021/12/29 10:47:31;;;;;;;128.33;24.43;;;;;;;2.26;100.00;99253.50;6355500;27;20487;-87
2021/12/29 10:50:32;;;;;;;134.32;21.60;;;;;;;2.25;100.00;99254.41;6372501;27;20038;-86
2021/12/29 10:53:38;;;;;;;113.50;21.08;;;;;;;2.15;100.00;99255.66;6373290;27;20526;-86
2021/12/29 10:56:43;;;;;;;81.07;23.30;;;;;;;2.36;100.00;99256.56;6371213;27;20039;-86
2021/12/29 10:59:44;;;;;;;89.65;22.63;;;;;;;2.27;100.00;99257.75;6370160;27;20032;-86
2021/12/29 11:02:46;;;;;;;169.60;23.85;;;;;;;2.32;100.00;99250.69;6355337;27;20161;-86
2021/12/29 11:05:53;;;;;;;97.35;21.75;;;;;;;2.30;100.00;99247.31;6373529;27;20044;-86
2021/12/29 11:08:57;;;;;;;85.70;23.08;;;;;;;2.19;100.00;99242.63;6371807;27;20114;-80
2021/12/29 11:12:08;;;;;;;93.68;21.42;;;;;;;2.25;100.00;99241.53;6369939;27;20415;-86
2021/12/29 11:15:23;;;;;;;66.13;22.67;;;;;;;2.49;100.00;99247.44;6370982;27;20031;-81
2021/12/29 11:18:25;;;;;;;65.45;21.70;;;;;;;2.36;100.00;99236.78;6371903;27;20054;-85
2021/12/29 11:21:29;;;;;;;119.93;23.88;;;;;;;2.47;100.00;99238.09;6371568;27;20031;-85
2021/12/29 11:24:30;;;;;;;134.95;22.23;;;;;;;2.51;100.00;99240.50;6377005;27;20110;-79
2021/12/29 11:27:35;;;;;;;127.10;20.85;;;;;;;2.37;100.00;99248.78;6360611;27;20031;-86
2021/12/29 11:30:40;;;;;;;138.30;23.95;;;;;;;2.29;100.00;99249.97;6370320;27;20035;-86
2021/12/29 11:33:41;;;;;;;148.23;22.25;;;;;;;2.19;100.00;99254.66;6371104;27;20414;-86
2021/12/29 11:36:42;;;;;;;114.93;20.98;;;;;;;2.24;100.00;99255.28;6353912;28;20032;-85
2021/12/29 11:39:46;;;;;;;120.70;23.63;;;;;;;2.27;100.00;99259.50;6372159;27;20119;-86
2021/12/29 11:42:48;;;;;;;117.07;22.25;;;;;;;2.32;100.00;99252.41;6373700;27;20055;-80
2021/12/29 11:45:53;;;;;;;153.48;21.10;;;;;;;2.11;100.00;99265.25;6338915;28;20517;-86
2021/12/29 11:48:54;;;;;;;111.97;20.58;;;;;;;2.04;100.00;99256.09;6371250;27;20080;-85
2021/12/29 11:52:25;;;;;;;112.70;21.90;;;;;;;2.10;100.00;99263.56;6351587;28;20043;-84
2021/12/29 11:55:32;;;;;;;116.38;19.58;;;;;;;2.03;100.00;99269.00;6371826;27;20044;-80
2021/12/29 11:58:37;;;;;;;80.07;20.10;;;;;;;2.12;100.00;99271.22;6372642;27;20045;-86
2021/12/29 12:01:38;;;;;;;63.17;19.02;;;;;;;2.09;100.00;99271.34;6372179;27;20043;-85
2021/12/29 12:04:39;;;;;;;52.97;17.40;;;;;;;2.09;100.00;99266.19;6371135;28;20070;-80
2021/12/29 12:07:40;;;;;;;71.47;17.83;;;;;;;2.11;100.00;99264.41;6372931;27;20050;-85
2021/12/29 12:10:42;;;;;;;54.30;15.93;;;;;;;2.15;100.00;99261.66;6377446;27;20055;-85
2021/12/29 12:13:43;;;;;;;52.03;17.83;;;;;;;2.21;100.00;99269.13;6378139;27;20054;-85
2021/12/29 12:17:11;;;;;;;40.00;18.42;;;;;;;2.25;100.00;99275.00;6376842;27;20483;-80
2021/12/29 12:20:14;;;;;;;45.35;16.52;;;;;;;2.40;100.00;99281.28;6366208;27;20055;-80
2021/12/29 12:23:28;;;;;;;43.08;16.90;;;;;;;2.37;100.00;99278.84;6356433;27;20452;-80
2021/12/29 12:26:29;;;;;;;42.47;15.43;;;;;;;2.22;100.00;99290.56;6375916;27;20167;-80
2021/12/29 12:29:37;;;;;;;49.78;15.77;;;;;;;2.09;100.00;99297.09;6340716;27;20511;-85
2021/12/29 12:32:42;;;;;;;36.22;15.20;;;;;;;2.13;100.00;99303.78;6374846;27;20047;-86
2021/12/29 12:35:46;;;;;;;38.67;14.32;;;;;;;1.93;100.00;99297.66;6375024;27;20478;-85
2021/12/29 12:38:48;;;;;;;43.08;18.25;;;;;;;1.93;100.00;99305.38;6375962;27;20043;-80
2021/12/29 12:41:53;;;;;;;36.67;15.02;;;;;;;2.07;100.00;99315.16;6357698;27;20403;-85
2021/12/29 12:44:54;;;;;;;42.05;17.27;;;;;;;1.97;100.00;99304.34;6376713;27;20046;-85
2021/12/29 12:48:04;;;;;;;40.83;17.35;;;;;;;1.87;100.00;99321.03;6358019;27;20039;-85
2021/12/29 12:51:17;;;;;;;38.15;16.73;;;;;;;1.92;100.00;99319.16;6376105;27;20039;-85
2021/12/29 12:54:23;;;;;;;59.20;24.83;;;;;;;1.72;100.00;99332.72;6377378;27;20063;-85
2021/12/29 12:57:41;;;;;;;47.35;21.45;;;;;;;1.88;100.00;99329.63;6375869;27;20044;-85
2021/12/29 13:00:54;;;;;;;38.85;17.42;;;;;;;1.89;100.00;99326.13;6375715;27;20475;-85
2021/12/29 13:04:04;;;;;;;38.28;16.48;;;;;;;2.00;100.00;99324.84;6374318;27;20071;-85
2021/12/29 13:07:05;;;;;;;35.80;16.85;;;;;;;2.11;100.00;99344.19;6375588;27;20039;-80
2021/12/29 13:10:11;;;;;;;33.60;16.20;;;;;;;2.04;100.00;99337.56;6356945;27;20049;-80
2021/12/29 13:13:20;;;;;;;38.65;16.67;;;;;;;1.94;100.00;99332.78;6375422;27;20046;-80
2021/12/29 13:16:24;;;;;;;43.78;15.98;;;;;;;2.08;100.00;99342.56;6357698;27;20075;-79
2021/12/29 13:19:25;;;;;;;37.05;17.10;;;;;;;1.92;100.00;99338.91;6365899;27;20562;-79
2021/12/29 13:22:29;;;;;;;31.90;16.88;;;;;;;1.97;100.00;99344.69;6374002;27;20055;-79
2021/12/29 13:25:31;;;;;;;38.47;17.48;;;;;;;2.09;100.00;99353.69;6374074;27;20130;-80
2021/12/29 13:28:33;;;;;;;36.75;17.30;;;;;;;1.92;100.00;99346.63;6375332;27;20039;-79
2021/12/29 13:31:34;;;;;;;37.72;18.17;;;;;;;1.86;100.00;99351.97;6373930;27;20087;-80
2021/12/29 13:34:35;;;;;;;33.70;16.42;;;;;;;1.80;100.00;99341.00;6356949;27;20039;-80
2021/12/29 13:37:37;;;;;;;28.58;13.60;;;;;;;1.84;100.00;99344.31;6373800;27;20039;-79
2021/12/29 13:40:54;;;;;;;37.67;17.65;;;;;;;2.05;100.00;99352.13;6374333;27;20035;-80
2021/12/29 13:43:57;;;;;;;36.65;17.42;;;;;;;2.18;100.00;99359.34;6351430;27;20040;-79
2021/12/29 13:47:04;;;;;;;40.65;20.13;;;;;;;2.16;100.00;99357.72;6350353;28;20036;-79
2021/12/29 13:50:12;;;;;;;37.13;17.90;;;;;;;2.15;100.00;99362.03;6334143;28;20059;-79
2021/12/29 13:53:13;;;;;;;47.83;21.58;;;;;;;2.12;100.00;99367.31;6351627;28;20063;-79
2021/12/29 13:56:21;;;;;;;64.25;23.00;;;;;;;2.11;100.00;99369.94;6350589;28;20046;-79
2021/12/29 13:59:25;;;;;;;52.50;19.85;;;;;;;1.85;100.00;99368.28;6349751;28;20441;-80
2021/12/29 14:02:29;;;;;;;46.72;19.70;;;;;;;1.91;100.00;99370.66;6368862;27;20043;-79
2021/12/29 14:05:39;;;;;;;36.13;17.35;;;;;;;1.94;100.00;99373.13;6358607;27;20046;-85